createdAt,value
2016-11-24T16:30:16.521Z,61.93
2016-11-24T16:30:19.363Z,61.65
2016-11-24T16:31:15.925Z,61.04
2016-11-24T16:32:14.373Z,60.87
2016-11-24T16:33:13.985Z,60.78
2016-11-24T16:34:14.684Z,60.78
2016-11-24T16:35:14.079Z,60.87
2016-11-24T16:36:13.564Z,60.81
2016-11-24T16:37:14.028Z,60.84
2016-11-24T16:38:14.079Z,60.89
2016-11-24T16:39:14.771Z,60.82
2016-11-24T16:40:14.275Z,61.77
2016-11-24T16:41:13.510Z,61.93
2016-11-24T16:42:14.068Z,61.96
2016-11-24T16:43:11.492Z,62.07
2016-11-24T16:44:13.950Z,62.06
2016-11-24T16:45:14.162Z,61.92
2016-11-24T16:46:11.741Z,61.75
2016-11-24T16:47:13.082Z,61.51
2016-11-24T16:48:13.478Z,61.72
2016-11-24T16:49:14.087Z,61.83
2016-11-24T16:50:13.592Z,61.89
2016-11-24T16:51:14.995Z,61.87
2016-11-24T16:52:13.541Z,61.92
2016-11-24T16:53:14.155Z,61.94
2016-11-24T16:54:10.078Z,61.99
2016-11-24T16:55:14.182Z,61.99
2016-11-24T16:56:13.760Z,61.93
2016-11-24T16:57:14.291Z,61.92
2016-11-24T16:58:12.731Z,61.91
2016-11-24T16:59:10.488Z,62.01
2016-11-24T17:00:14.435Z,62.00
2016-11-24T17:01:14.504Z,62.07
2016-11-24T17:02:13.969Z,61.91
2016-11-24T17:03:13.590Z,61.58
2016-11-24T17:04:14.334Z,61.42
2016-11-24T17:05:14.975Z,61.87
2016-11-24T17:06:13.970Z,62.01
2016-11-24T17:07:13.783Z,61.98
2016-11-24T17:08:14.536Z,61.97
2016-11-24T17:09:14.015Z,62.09
2016-11-24T17:10:13.803Z,62.24
2016-11-24T17:11:14.301Z,62.32
2016-11-24T17:12:14.269Z,62.37
2016-11-24T17:13:11.185Z,62.38
2016-11-24T17:14:14.467Z,61.52
2016-11-24T17:15:14.176Z,61.46
2016-11-24T17:16:12.710Z,61.32
2016-11-24T17:17:13.232Z,61.56
2016-11-24T17:18:13.437Z,62.38
2016-11-24T17:19:12.668Z,62.58
2016-11-24T17:20:12.936Z,62.70
2016-11-24T17:21:12.612Z,62.81
2016-11-24T17:22:13.840Z,62.80
2016-11-24T17:23:15.973Z,63.00
2016-11-24T17:24:14.195Z,63.01
2016-11-24T17:25:14.523Z,63.02
2016-11-24T17:26:13.019Z,63.07
2016-11-24T17:27:13.496Z,63.05
2016-11-24T17:28:13.077Z,62.28
2016-11-24T17:29:13.064Z,61.96
2016-11-24T17:30:13.355Z,62.05
2016-11-24T17:31:13.254Z,61.96
2016-11-24T17:32:13.272Z,61.91
2016-11-24T17:33:13.618Z,62.00
2016-11-24T17:34:14.383Z,61.91
2016-11-24T17:35:14.461Z,62.03
2016-11-24T17:36:14.735Z,62.12
2016-11-24T17:37:16.758Z,62.25
2016-11-24T17:38:16.160Z,63.06
2016-11-24T17:39:16.147Z,63.17
2016-11-24T17:40:12.945Z,63.32
2016-11-24T17:41:11.016Z,62.90
2016-11-24T17:42:12.141Z,62.37
2016-11-24T17:43:14.162Z,62.54
2016-11-24T17:44:14.116Z,62.99
2016-11-24T17:45:12.591Z,62.34
2016-11-24T17:46:13.423Z,62.66
2016-11-24T17:47:11.741Z,63.08
2016-11-24T17:48:12.689Z,62.36
2016-11-24T17:49:12.904Z,61.24
2016-11-24T17:50:13.619Z,61.56
2016-11-24T17:51:13.201Z,62.30
2016-11-24T17:52:13.122Z,63.25
2016-11-24T17:53:12.388Z,63.01
2016-11-24T17:54:13.965Z,63.17
2016-11-24T17:55:13.600Z,63.39
2016-11-24T17:56:14.260Z,63.47
2016-11-24T17:57:13.232Z,63.57
2016-11-24T17:58:12.932Z,63.61
2016-11-24T17:59:13.152Z,63.59
2016-11-24T18:00:12.435Z,62.82
2016-11-24T18:01:12.762Z,62.46
2016-11-24T18:02:16.197Z,63.14
2016-11-24T18:03:14.778Z,63.38
2016-11-24T18:04:13.235Z,63.58
2016-11-24T18:05:12.327Z,63.66
2016-11-24T18:06:18.639Z,62.76
2016-11-24T18:07:10.895Z,63.50
2016-11-24T18:08:13.307Z,62.34
2016-11-24T18:09:13.175Z,63.05
2016-11-24T18:10:12.630Z,63.15
2016-11-24T18:11:12.771Z,63.29
2016-11-24T18:12:13.782Z,63.35
2016-11-24T18:13:13.129Z,63.39
2016-11-24T18:14:13.734Z,63.44
2016-11-24T18:15:13.526Z,63.45
2016-11-24T18:16:12.521Z,63.46
2016-11-24T18:17:13.669Z,63.36
2016-11-24T18:18:13.353Z,63.23
2016-11-24T18:19:14.053Z,63.36
2016-11-24T18:20:12.941Z,63.34
2016-11-24T18:21:12.991Z,63.38
2016-11-24T18:22:12.814Z,63.42
2016-11-24T18:23:17.656Z,63.44
2016-11-24T18:24:13.980Z,63.51
2016-11-24T18:25:12.830Z,63.54
2016-11-24T18:26:11.911Z,63.54
2016-11-24T18:27:14.670Z,63.59
2016-11-24T18:28:15.616Z,63.60
2016-11-24T18:29:13.453Z,63.60
2016-11-24T18:30:12.888Z,63.61
2016-11-24T18:31:12.513Z,63.63
2016-11-24T18:32:14.677Z,63.59
2016-11-24T18:33:13.206Z,63.63
2016-11-24T18:34:13.205Z,63.57
2016-11-24T18:35:12.794Z,63.69
2016-11-24T18:36:12.497Z,63.77
2016-11-24T18:37:13.403Z,63.38
2016-11-24T18:38:14.127Z,62.51
2016-11-24T18:39:11.368Z,61.51
2016-11-24T18:40:12.514Z,60.84
2016-11-24T18:41:15.355Z,61.34
2016-11-24T18:42:15.559Z,62.45
2016-11-24T18:43:13.586Z,63.25
2016-11-24T18:44:13.484Z,63.20
2016-11-24T18:45:15.217Z,63.60
2016-11-24T18:46:13.853Z,63.76
2016-11-24T18:47:11.600Z,63.83
2016-11-24T18:48:13.268Z,64.00
2016-11-24T18:49:12.776Z,63.71
2016-11-24T18:50:13.281Z,63.96
2016-11-24T18:51:14.098Z,63.95
2016-11-24T18:52:12.206Z,64.09
2016-11-24T18:53:12.844Z,64.12
2016-11-24T18:54:13.876Z,64.13
2016-11-24T18:55:12.807Z,64.19
2016-11-24T18:56:15.070Z,64.22
2016-11-24T18:57:12.130Z,64.07
2016-11-24T18:58:12.817Z,64.00
2016-11-24T18:59:14.312Z,63.19
2016-11-24T19:00:13.129Z,63.41
2016-11-24T19:01:13.006Z,63.81
2016-11-24T19:02:13.726Z,64.12
2016-11-24T19:03:13.270Z,64.22
2016-11-24T19:04:12.970Z,64.18
2016-11-24T19:05:11.928Z,64.19
2016-11-24T19:06:13.112Z,64.18
2016-11-24T19:07:13.399Z,64.27
2016-11-24T19:08:13.233Z,64.30
2016-11-24T19:09:14.623Z,64.29
2016-11-24T19:10:10.247Z,64.26
2016-11-24T19:11:13.393Z,64.26
2016-11-24T19:12:13.099Z,64.32
2016-11-24T19:13:13.920Z,64.20
2016-11-24T19:14:13.278Z,63.30
2016-11-24T19:15:13.736Z,64.19
2016-11-24T19:16:13.375Z,64.28
2016-11-24T19:17:13.447Z,64.25
2016-11-24T19:18:13.230Z,64.29
2016-11-24T19:19:13.059Z,64.35
2016-11-24T19:20:13.353Z,64.38
2016-11-24T19:21:13.466Z,64.33
2016-11-24T19:22:14.013Z,64.28
2016-11-24T19:23:14.815Z,64.32
2016-11-24T19:24:11.762Z,64.36
2016-11-24T19:25:11.614Z,64.35
2016-11-24T19:26:13.606Z,64.35
2016-11-24T19:27:13.198Z,64.34
2016-11-24T19:28:12.303Z,64.35
2016-11-24T19:29:13.253Z,64.32
2016-11-24T19:30:14.050Z,64.36
2016-11-24T19:31:13.338Z,64.32
2016-11-24T19:32:13.573Z,64.34
2016-11-24T19:33:13.836Z,64.37
2016-11-24T19:34:10.818Z,64.30
2016-11-24T19:35:13.203Z,64.33
2016-11-24T19:36:12.809Z,64.28
2016-11-24T19:37:13.614Z,64.28
2016-11-24T19:38:13.170Z,64.30
2016-11-24T19:39:12.988Z,64.29
2016-11-24T19:40:13.828Z,64.31
2016-11-24T19:41:13.763Z,64.30
2016-11-24T19:42:13.292Z,64.30
2016-11-24T19:43:12.269Z,64.31
2016-11-24T19:44:13.137Z,64.30
2016-11-24T19:45:13.286Z,64.27
2016-11-24T19:46:13.124Z,64.22
2016-11-24T19:47:12.708Z,64.26
2016-11-24T19:48:13.056Z,64.24
2016-11-24T19:49:11.062Z,64.25
2016-11-24T19:50:12.627Z,64.22
2016-11-24T19:51:13.328Z,63.27
2016-11-24T19:52:12.893Z,63.12
2016-11-24T19:53:12.641Z,63.14
2016-11-24T19:54:13.403Z,63.94
2016-11-24T19:55:11.558Z,63.97
2016-11-24T19:56:13.068Z,64.17
2016-11-24T19:57:13.029Z,64.18
2016-11-24T19:58:13.450Z,64.22
2016-11-24T19:59:13.724Z,64.21
2016-11-24T20:00:18.963Z,64.23
2016-11-24T20:01:12.014Z,64.25
2016-11-24T20:02:13.879Z,64.21
2016-11-24T20:03:12.644Z,64.25
2016-11-24T20:04:13.514Z,64.25
2016-11-24T20:05:12.967Z,64.28
2016-11-24T20:06:15.085Z,64.29
2016-11-24T20:07:12.969Z,64.25
2016-11-24T20:08:12.381Z,64.19
2016-11-24T20:09:11.288Z,64.22
2016-11-24T20:10:13.688Z,64.25
2016-11-24T20:11:12.505Z,64.27
2016-11-24T20:12:14.725Z,64.27
2016-11-24T20:13:09.426Z,64.26
2016-11-24T20:14:12.844Z,64.23
2016-11-24T20:15:12.475Z,64.24
2016-11-24T20:16:11.481Z,64.23
2016-11-24T20:17:12.776Z,64.20
2016-11-24T20:18:12.618Z,64.24
2016-11-24T20:19:12.429Z,64.19
2016-11-24T20:20:13.111Z,64.21
2016-11-24T20:21:12.167Z,64.24
2016-11-24T20:22:12.854Z,64.19
2016-11-24T20:23:11.841Z,64.23
2016-11-24T20:24:12.712Z,64.25
2016-11-24T20:25:11.787Z,64.20
2016-11-24T20:26:12.727Z,64.23
2016-11-24T20:27:12.693Z,64.23
2016-11-24T20:28:11.545Z,64.21
2016-11-24T20:29:12.987Z,64.22
2016-11-24T20:30:10.993Z,64.28
2016-11-24T20:31:13.991Z,63.23
2016-11-24T20:32:12.008Z,63.06
2016-11-24T20:33:12.862Z,62.95
2016-11-24T20:34:11.878Z,62.93
2016-11-24T20:35:12.811Z,63.05
2016-11-24T20:36:11.784Z,63.82
2016-11-24T20:37:12.332Z,64.03
2016-11-24T20:38:12.746Z,64.07
2016-11-24T20:39:10.717Z,64.12
2016-11-24T20:40:11.691Z,64.15
2016-11-24T20:41:12.545Z,64.17
2016-11-24T20:42:12.604Z,64.16
2016-11-24T20:43:12.765Z,64.18
2016-11-24T20:44:11.734Z,64.23
2016-11-24T20:45:17.729Z,64.21
2016-11-24T20:46:12.340Z,64.22
2016-11-24T20:47:13.978Z,64.21
2016-11-24T20:48:12.909Z,64.20
2016-11-24T20:49:11.155Z,64.18
2016-11-24T20:50:14.143Z,63.49
2016-11-24T20:51:11.327Z,64.05
2016-11-24T20:52:12.744Z,64.11
2016-11-24T20:53:13.105Z,63.02
2016-11-24T20:54:12.555Z,63.79
2016-11-24T20:55:12.539Z,63.78
2016-11-24T20:56:12.492Z,63.88
2016-11-24T20:57:14.620Z,63.79
2016-11-24T20:58:13.196Z,63.59
2016-11-24T20:59:13.519Z,63.54
2016-11-24T21:00:13.708Z,63.27
2016-11-24T21:01:12.629Z,63.23
2016-11-24T21:02:14.421Z,63.38
2016-11-24T21:03:12.480Z,63.28
2016-11-24T21:04:13.819Z,63.32
2016-11-24T21:05:12.820Z,63.48
2016-11-24T21:06:12.227Z,63.44
2016-11-24T21:07:12.680Z,63.34
2016-11-24T21:08:13.114Z,63.46
2016-11-24T21:09:12.567Z,63.42
2016-11-24T21:10:14.078Z,63.44
2016-11-24T21:11:12.310Z,62.13
2016-11-24T21:12:12.823Z,62.35
2016-11-24T21:13:12.721Z,62.77
2016-11-24T21:14:13.499Z,63.12
2016-11-24T21:15:13.545Z,63.25
2016-11-24T21:16:13.158Z,63.33
2016-11-24T21:17:12.421Z,63.39
2016-11-24T21:18:12.949Z,63.44
2016-11-24T21:19:12.782Z,63.47
2016-11-24T21:20:13.476Z,63.52
2016-11-24T21:21:11.424Z,63.73
2016-11-24T21:22:13.586Z,63.77
2016-11-24T21:23:12.903Z,63.84
2016-11-24T21:24:14.813Z,63.97
2016-11-24T21:25:12.790Z,63.93
2016-11-24T21:26:12.751Z,63.84
2016-11-24T21:27:13.614Z,63.91
2016-11-24T21:28:13.072Z,64.02
2016-11-24T21:29:12.775Z,64.04
2016-11-24T21:30:14.073Z,64.08
2016-11-24T21:31:12.142Z,64.05
2016-11-24T21:32:13.632Z,63.97
2016-11-24T21:33:12.555Z,64.00
2016-11-24T21:34:13.261Z,64.03
2016-11-24T21:35:12.726Z,64.10
2016-11-24T21:36:12.691Z,64.18
2016-11-24T21:37:12.803Z,64.27
2016-11-24T21:38:11.918Z,64.35
2016-11-24T21:39:14.082Z,64.30
2016-11-24T21:40:12.784Z,64.36
2016-11-24T21:41:12.509Z,64.39
2016-11-24T21:42:13.524Z,64.36
2016-11-24T21:43:12.529Z,64.40
2016-11-24T21:44:13.021Z,64.43
2016-11-24T21:45:11.003Z,64.31
2016-11-24T21:46:11.866Z,64.45
2016-11-24T21:47:12.712Z,64.44
2016-11-24T21:48:13.253Z,64.45
2016-11-24T21:49:12.791Z,64.50
2016-11-24T21:50:12.797Z,64.48
2016-11-24T21:51:12.331Z,64.49
2016-11-24T21:52:13.752Z,64.50
2016-11-24T21:53:12.579Z,64.49
2016-11-24T21:54:13.497Z,64.49
2016-11-24T21:55:14.012Z,64.48
2016-11-24T21:56:11.944Z,64.44
2016-11-24T21:57:09.494Z,64.45
2016-11-24T21:58:12.904Z,64.46
2016-11-24T21:59:11.932Z,64.39
2016-11-24T22:00:11.906Z,64.41
2016-11-24T22:01:12.404Z,64.42
2016-11-24T22:02:12.394Z,64.40
2016-11-24T22:03:14.041Z,64.39
2016-11-24T22:04:13.408Z,64.34
2016-11-24T22:05:12.943Z,64.37
2016-11-24T22:06:11.881Z,64.37
2016-11-24T22:07:11.889Z,64.35
2016-11-24T22:08:16.858Z,64.22
2016-11-24T22:09:12.455Z,63.36
2016-11-24T22:10:14.280Z,63.15
2016-11-24T22:11:12.788Z,64.04
2016-11-24T22:12:11.863Z,64.19
2016-11-24T22:13:11.499Z,64.24
2016-11-24T22:14:13.137Z,64.28
2016-11-24T22:15:13.005Z,64.30
2016-11-24T22:16:11.959Z,64.33
2016-11-24T22:17:13.394Z,64.32
2016-11-24T22:18:13.481Z,64.34
2016-11-24T22:19:13.138Z,64.32
2016-11-24T22:20:12.607Z,64.33
2016-11-24T22:21:13.456Z,64.35
2016-11-24T22:22:13.464Z,64.37
2016-11-24T22:23:12.516Z,64.41
2016-11-24T22:24:15.485Z,64.38
2016-11-24T22:25:13.029Z,64.38
2016-11-24T22:26:13.268Z,64.21
2016-11-24T22:27:12.222Z,63.35
2016-11-24T22:28:13.908Z,63.34
2016-11-24T22:29:12.439Z,63.41
2016-11-24T22:30:12.475Z,64.01
2016-11-24T22:31:13.171Z,64.21
2016-11-24T22:32:12.888Z,64.26
2016-11-24T22:33:11.962Z,64.30
2016-11-24T22:34:12.587Z,64.33
2016-11-24T22:35:13.208Z,64.33
2016-11-24T22:36:13.151Z,64.33
2016-11-24T22:37:13.619Z,64.37
2016-11-24T22:38:12.127Z,64.32
2016-11-24T22:39:14.574Z,64.35
2016-11-24T22:40:12.355Z,64.37
2016-11-24T22:41:12.403Z,64.33
2016-11-24T22:42:13.108Z,64.38
2016-11-24T22:43:13.164Z,64.38
2016-11-24T22:44:12.809Z,64.42
2016-11-24T22:45:12.560Z,64.34
2016-11-24T22:46:13.049Z,63.28
2016-11-24T22:47:10.318Z,63.20
2016-11-24T22:48:11.516Z,63.09
2016-11-24T22:49:12.551Z,64.00
2016-11-24T22:50:10.780Z,64.22
2016-11-24T22:51:13.569Z,64.27
2016-11-24T22:52:14.267Z,64.31
2016-11-24T22:53:12.797Z,64.30
2016-11-24T22:54:14.606Z,64.35
2016-11-24T22:55:11.664Z,64.41
2016-11-24T22:56:11.570Z,64.37
2016-11-24T22:57:11.670Z,64.21
2016-11-24T22:58:13.174Z,63.28
2016-11-24T22:59:12.605Z,63.16
2016-11-24T23:00:12.502Z,63.09
2016-11-24T23:01:12.973Z,63.98
2016-11-24T23:02:12.554Z,64.08
2016-11-24T23:03:12.596Z,63.25
2016-11-24T23:04:13.260Z,63.13
2016-11-24T23:05:12.227Z,63.99
2016-11-24T23:06:12.815Z,64.15
2016-11-24T23:07:13.527Z,64.20
2016-11-24T23:08:13.339Z,64.24
2016-11-24T23:09:11.262Z,64.28
2016-11-24T23:10:12.802Z,64.34
2016-11-24T23:11:13.090Z,64.40
2016-11-24T23:12:12.172Z,64.40
2016-11-24T23:13:12.889Z,64.44
2016-11-24T23:14:11.924Z,64.48
2016-11-24T23:15:13.611Z,64.49
2016-11-24T23:16:13.243Z,64.52
2016-11-24T23:17:11.225Z,64.50
2016-11-24T23:18:11.549Z,64.36
2016-11-24T23:19:13.719Z,63.48
2016-11-24T23:20:14.531Z,63.31
2016-11-24T23:21:12.436Z,63.21
2016-11-24T23:22:13.074Z,63.16
2016-11-24T23:23:12.720Z,63.13
2016-11-24T23:24:14.396Z,63.41
2016-11-24T23:25:13.185Z,64.10
2016-11-24T23:26:12.790Z,64.26
2016-11-24T23:27:12.663Z,64.32
2016-11-24T23:28:12.687Z,64.36
2016-11-24T23:29:13.415Z,64.39
2016-11-24T23:30:13.571Z,64.43
2016-11-24T23:31:12.557Z,64.41
2016-11-24T23:32:13.680Z,64.44
2016-11-24T23:33:12.475Z,64.43
2016-11-24T23:34:13.099Z,64.43
2016-11-24T23:35:12.557Z,64.40
2016-11-24T23:36:12.602Z,64.42
2016-11-24T23:37:13.242Z,64.47
2016-11-24T23:38:13.067Z,64.45
2016-11-24T23:39:12.163Z,64.43
2016-11-24T23:40:12.939Z,64.47
2016-11-24T23:41:13.793Z,64.48
2016-11-24T23:42:12.403Z,64.45
2016-11-24T23:43:13.115Z,64.43
2016-11-24T23:44:12.121Z,64.42
2016-11-24T23:45:12.815Z,64.42
2016-11-24T23:46:14.053Z,64.42
2016-11-24T23:47:12.089Z,64.46
2016-11-24T23:48:13.738Z,64.48
2016-11-24T23:49:13.221Z,64.44
2016-11-24T23:50:13.158Z,64.42
2016-11-24T23:51:12.191Z,64.42
2016-11-24T23:52:13.980Z,64.39
2016-11-24T23:53:12.531Z,64.47
2016-11-24T23:54:13.044Z,64.46
2016-11-24T23:55:12.671Z,64.44
2016-11-24T23:56:12.847Z,64.46
2016-11-24T23:57:12.044Z,64.45
2016-11-24T23:58:12.086Z,64.38
2016-11-24T23:59:12.140Z,64.44
